createdAt,value
2023-05-16T00:00:40.396Z,12.13
2023-05-16T00:01:40.398Z,12.16
2023-05-16T00:02:40.555Z,12.16
2023-05-16T00:03:40.440Z,12.16
2023-05-16T00:04:40.574Z,12.13
2023-05-16T00:05:40.323Z,12.15
2023-05-16T00:06:40.348Z,12.16
2023-05-16T00:07:40.298Z,12.16
2023-05-16T00:08:40.338Z,12.16
2023-05-16T00:09:40.301Z,12.13
2023-05-16T00:10:40.294Z,12.04
2023-05-16T00:11:40.261Z,11.98
2023-05-16T00:12:40.300Z,12.00
2023-05-16T00:13:40.233Z,12.01
2023-05-16T00:14:40.263Z,12.01
2023-05-16T00:15:40.236Z,12.00
2023-05-16T00:16:40.242Z,11.98
2023-05-16T00:17:40.223Z,11.87
2023-05-16T00:18:40.224Z,11.85
2023-05-16T00:19:40.221Z,11.87
2023-05-16T00:20:40.178Z,11.90
2023-05-16T00:21:40.177Z,11.90
2023-05-16T00:22:40.133Z,11.94
2023-05-16T00:23:40.156Z,11.94
2023-05-16T00:24:40.142Z,11.93
2023-05-16T00:25:40.132Z,11.94
2023-05-16T00:26:40.105Z,11.90
2023-05-16T00:27:40.103Z,11.87
2023-05-16T00:28:40.081Z,11.84
2023-05-16T00:29:40.087Z,11.84
2023-05-16T00:30:40.059Z,11.82
2023-05-16T00:31:40.102Z,11.87
2023-05-16T00:32:40.065Z,11.90
2023-05-16T00:33:40.050Z,11.90
2023-05-16T00:34:40.069Z,11.94
2023-05-16T00:35:40.045Z,11.94
2023-05-16T00:36:39.993Z,11.93
2023-05-16T00:37:40.039Z,11.90
2023-05-16T00:38:39.968Z,11.82
2023-05-16T00:39:39.969Z,11.79
2023-05-16T00:40:39.948Z,11.77
2023-05-16T00:41:39.948Z,11.77
2023-05-16T00:42:39.931Z,11.72
2023-05-16T00:43:39.927Z,11.74
2023-05-16T00:44:39.901Z,11.74
2023-05-16T00:45:39.905Z,11.72
2023-05-16T00:46:39.971Z,11.74
2023-05-16T00:47:39.949Z,11.70
2023-05-16T00:48:39.863Z,11.69
2023-05-16T00:49:39.861Z,11.64
2023-05-16T00:50:39.831Z,11.59
2023-05-16T00:51:39.849Z,11.57
2023-05-16T00:52:39.801Z,11.59
2023-05-16T00:53:39.852Z,11.60
2023-05-16T00:54:39.790Z,11.60
2023-05-16T00:55:39.796Z,11.56
2023-05-16T00:56:39.774Z,11.56
2023-05-16T00:57:39.778Z,11.54
2023-05-16T00:58:39.740Z,11.54
2023-05-16T00:59:39.770Z,11.53
2023-05-16T01:00:39.743Z,11.51
2023-05-16T01:01:39.786Z,11.53
2023-05-16T01:02:39.856Z,11.51
2023-05-16T01:03:39.787Z,11.48
2023-05-16T01:04:39.691Z,11.49
2023-05-16T01:05:39.699Z,11.44
2023-05-16T01:06:39.652Z,11.44
2023-05-16T01:07:39.669Z,11.44
2023-05-16T01:08:39.631Z,11.44
2023-05-16T01:09:39.637Z,11.41
2023-05-16T01:10:39.641Z,11.38
2023-05-16T01:11:39.618Z,11.36
2023-05-16T01:12:39.589Z,11.35
2023-05-16T01:13:39.599Z,11.31
2023-05-16T01:14:39.577Z,11.31
2023-05-16T01:15:39.693Z,11.31
2023-05-16T01:16:39.578Z,11.35
2023-05-16T01:17:39.584Z,11.36
2023-05-16T01:18:39.552Z,11.35
2023-05-16T01:19:39.527Z,11.30
2023-05-16T01:20:39.524Z,11.35
2023-05-16T01:21:39.524Z,11.35
2023-05-16T01:22:39.477Z,11.30
2023-05-16T01:23:39.478Z,11.28
2023-05-16T01:24:39.461Z,11.28
2023-05-16T01:25:39.452Z,11.27
2023-05-16T01:26:39.447Z,11.28
2023-05-16T01:27:39.439Z,11.27
2023-05-16T01:28:39.446Z,11.26
2023-05-16T01:29:39.423Z,11.27
2023-05-16T01:30:39.400Z,11.30
2023-05-16T01:31:39.465Z,11.28
2023-05-16T01:32:39.389Z,11.30
2023-05-16T01:33:39.373Z,11.31
2023-05-16T01:34:39.338Z,11.31
2023-05-16T01:35:39.349Z,11.33
2023-05-16T01:36:39.311Z,11.33
2023-05-16T01:37:39.392Z,11.27
2023-05-16T01:38:39.288Z,11.27
2023-05-16T01:39:39.307Z,11.28
2023-05-16T01:40:39.271Z,11.30
2023-05-16T01:41:39.283Z,11.30
2023-05-16T01:42:39.244Z,11.31
2023-05-16T01:43:39.277Z,11.30
2023-05-16T01:44:39.235Z,11.27
2023-05-16T01:45:39.252Z,11.26
2023-05-16T01:46:39.234Z,11.23
2023-05-16T01:47:39.264Z,11.24
2023-05-16T01:48:39.212Z,11.26
2023-05-16T01:49:39.193Z,11.26
2023-05-16T01:50:39.156Z,11.26
2023-05-16T01:51:39.162Z,11.26
2023-05-16T01:52:39.144Z,11.27
2023-05-16T01:53:39.148Z,11.28
2023-05-16T01:54:39.141Z,11.30
2023-05-16T01:55:39.136Z,11.30
2023-05-16T01:56:39.091Z,11.28
2023-05-16T01:57:39.228Z,11.28
2023-05-16T01:58:39.070Z,11.33
2023-05-16T01:59:39.676Z,11.33
2023-05-16T02:00:39.079Z,11.35
2023-05-16T02:01:39.171Z,11.38
2023-05-16T02:02:39.112Z,11.39
2023-05-16T02:03:39.078Z,11.39
2023-05-16T02:04:38.998Z,11.41
2023-05-16T02:05:39.046Z,11.39
2023-05-16T02:06:38.987Z,11.39
2023-05-16T02:07:39.012Z,11.39
2023-05-16T02:08:38.970Z,11.36
2023-05-16T02:09:38.972Z,11.36
2023-05-16T02:10:38.962Z,11.31
2023-05-16T02:11:38.950Z,11.28
2023-05-16T02:12:38.919Z,11.27
2023-05-16T02:13:38.932Z,11.26
2023-05-16T02:14:38.894Z,11.24
2023-05-16T02:15:38.912Z,11.23
2023-05-16T02:16:38.905Z,11.20
2023-05-16T02:17:38.987Z,11.17
2023-05-16T02:18:38.896Z,11.13
2023-05-16T02:19:38.872Z,11.11
2023-05-16T02:20:38.831Z,11.06
2023-05-16T02:21:38.890Z,11.03
2023-05-16T02:22:38.803Z,11.05
2023-05-16T02:23:38.825Z,11.03
2023-05-16T02:24:38.787Z,11.01
2023-05-16T02:25:38.802Z,10.95
2023-05-16T02:26:38.776Z,10.98
2023-05-16T02:27:38.786Z,10.94
2023-05-16T02:28:38.737Z,10.93
2023-05-16T02:29:38.758Z,10.90
2023-05-16T02:30:38.732Z,10.88
2023-05-16T02:31:38.785Z,10.88
2023-05-16T02:32:38.743Z,10.86
2023-05-16T02:33:38.707Z,10.87
2023-05-16T02:34:38.681Z,10.87
2023-05-16T02:35:38.688Z,10.84
2023-05-16T02:36:38.656Z,10.84
2023-05-16T02:37:38.672Z,10.86
2023-05-16T02:38:38.649Z,10.86
2023-05-16T02:39:38.645Z,10.84
2023-05-16T02:40:38.617Z,10.83
2023-05-16T02:41:38.618Z,10.81
2023-05-16T02:42:38.594Z,10.78
2023-05-16T02:43:38.648Z,10.75
2023-05-16T02:44:38.564Z,10.72
2023-05-16T02:45:38.580Z,10.68
2023-05-16T02:46:38.647Z,10.65
2023-05-16T02:47:38.603Z,10.52
2023-05-16T02:48:38.522Z,10.44
2023-05-16T02:49:38.548Z,10.39
2023-05-16T02:50:38.514Z,10.31
2023-05-16T02:51:38.553Z,10.28
2023-05-16T02:52:38.488Z,10.20
2023-05-16T02:53:38.501Z,10.16
2023-05-16T02:54:38.556Z,10.07
2023-05-16T02:55:38.658Z,10.06
2023-05-16T02:56:38.436Z,10.01
2023-05-16T02:57:38.444Z,9.98
2023-05-16T02:58:38.415Z,9.93
2023-05-16T02:59:38.452Z,9.89
2023-05-16T03:00:38.460Z,9.83
2023-05-16T03:01:38.462Z,9.85
2023-05-16T03:02:38.539Z,9.86
2023-05-16T03:03:38.531Z,9.81
2023-05-16T03:04:38.348Z,9.85
2023-05-16T03:05:38.402Z,9.83
2023-05-16T03:06:38.328Z,9.81
2023-05-16T03:07:38.333Z,9.83
2023-05-16T03:08:38.315Z,9.86
2023-05-16T03:09:38.317Z,9.85
2023-05-16T03:10:38.275Z,9.86
2023-05-16T03:11:38.332Z,9.89
2023-05-16T03:12:38.264Z,9.93
2023-05-16T03:13:38.303Z,9.98
2023-05-16T03:14:38.244Z,9.98
2023-05-16T03:15:38.252Z,9.96
2023-05-16T03:16:38.350Z,9.89
2023-05-16T03:17:38.277Z,9.89
2023-05-16T03:18:38.258Z,9.89
2023-05-16T03:19:38.179Z,9.89
2023-05-16T03:20:38.205Z,9.88
2023-05-16T03:21:38.163Z,9.88
2023-05-16T03:22:38.256Z,9.86
2023-05-16T03:23:38.143Z,9.86
2023-05-16T03:24:38.203Z,9.89
2023-05-16T03:25:38.122Z,9.86
2023-05-16T03:26:38.151Z,9.89
2023-05-16T03:27:38.115Z,9.92
2023-05-16T03:28:38.124Z,9.92
2023-05-16T03:29:38.074Z,9.93
2023-05-16T03:30:38.092Z,9.96
2023-05-16T03:31:38.113Z,9.95
2023-05-16T03:32:38.152Z,9.93
2023-05-16T03:33:38.056Z,9.92
2023-05-16T03:34:38.043Z,9.89
2023-05-16T03:35:38.030Z,9.89
2023-05-16T03:36:38.056Z,9.92
2023-05-16T03:37:37.985Z,9.91
2023-05-16T03:38:38.020Z,9.92
2023-05-16T03:39:37.964Z,9.89
2023-05-16T03:40:38.041Z,9.91
2023-05-16T03:41:37.948Z,9.93
2023-05-16T03:42:37.955Z,9.93
2023-05-16T03:43:37.944Z,9.92
2023-05-16T03:44:37.953Z,9.92
2023-05-16T03:45:37.941Z,9.93
2023-05-16T03:46:37.919Z,9.93
2023-05-16T03:47:37.943Z,9.93
2023-05-16T03:48:37.898Z,9.91
2023-05-16T03:49:37.911Z,9.93
2023-05-16T03:50:40.241Z,9.91
2023-05-16T03:51:37.837Z,9.89
2023-05-16T03:52:37.852Z,9.91
2023-05-16T03:53:45.337Z,9.88
2023-05-16T03:54:37.876Z,9.91
2023-05-16T03:55:38.553Z,9.89
2023-05-16T03:56:38.461Z,9.93
2023-05-16T03:57:37.783Z,9.92
2023-05-16T03:58:37.795Z,9.93
2023-05-16T03:59:37.753Z,9.93
2023-05-16T04:00:37.806Z,9.95
2023-05-16T04:01:37.788Z,9.95
2023-05-16T04:02:37.870Z,9.93
2023-05-16T04:03:37.702Z,9.96
2023-05-16T04:04:37.744Z,9.95
2023-05-16T04:05:37.715Z,9.95
2023-05-16T04:06:37.722Z,9.93
2023-05-16T04:07:37.680Z,9.91
2023-05-16T04:08:37.682Z,9.91
2023-05-16T04:09:37.656Z,9.89
2023-05-16T04:10:37.677Z,9.86
2023-05-16T04:11:37.660Z,9.85
2023-05-16T04:12:37.714Z,9.83
2023-05-16T04:13:37.706Z,9.81
2023-05-16T04:14:37.614Z,9.80
2023-05-16T04:15:37.572Z,9.78
2023-05-16T04:16:37.610Z,9.78
2023-05-16T04:17:37.613Z,9.75
2023-05-16T04:18:37.651Z,9.75
2023-05-16T04:19:37.542Z,9.75
2023-05-16T04:20:37.553Z,9.73
2023-05-16T04:21:37.548Z,9.73
2023-05-16T04:22:37.586Z,9.73
2023-05-16T04:23:37.490Z,9.73
2023-05-16T04:24:37.506Z,9.70
2023-05-16T04:25:37.475Z,9.68
2023-05-16T04:26:37.515Z,9.70
2023-05-16T04:27:37.459Z,9.67
2023-05-16T04:28:37.487Z,9.68
2023-05-16T04:29:37.436Z,9.70
2023-05-16T04:30:37.442Z,9.68
2023-05-16T04:31:37.453Z,9.70
2023-05-16T04:32:37.485Z,9.71
2023-05-16T04:33:37.456Z,9.67
2023-05-16T04:34:39.883Z,9.65
2023-05-16T04:35:37.425Z,9.67
2023-05-16T04:36:37.370Z,9.68
2023-05-16T04:37:37.366Z,9.67
2023-05-16T04:38:37.346Z,9.65
2023-05-16T04:39:37.373Z,9.67
2023-05-16T04:40:37.314Z,9.67
2023-05-16T04:41:37.367Z,9.67
2023-05-16T04:42:37.286Z,9.65
2023-05-16T04:43:37.306Z,9.63
2023-05-16T04:44:37.280Z,9.63
2023-05-16T04:45:37.978Z,9.65
2023-05-16T04:46:37.308Z,9.63
2023-05-16T04:47:37.279Z,9.62
2023-05-16T04:48:37.238Z,9.58
2023-05-16T04:49:37.253Z,9.56
2023-05-16T04:50:37.237Z,9.56
2023-05-16T04:51:37.229Z,9.53
2023-05-16T04:52:37.178Z,9.55
2023-05-16T04:53:37.225Z,9.52
2023-05-16T04:54:37.164Z,9.50
2023-05-16T04:55:37.203Z,9.52
2023-05-16T04:56:37.153Z,9.52
2023-05-16T04:57:37.174Z,9.50
2023-05-16T04:58:37.126Z,9.49
2023-05-16T04:59:37.139Z,9.49
2023-05-16T05:00:37.095Z,9.45
2023-05-16T05:01:37.249Z,9.49
2023-05-16T05:02:37.144Z,9.44
2023-05-16T05:03:37.095Z,9.41
2023-05-16T05:04:37.065Z,9.40
2023-05-16T05:05:37.320Z,9.37
2023-05-16T05:06:37.109Z,9.35
2023-05-16T05:07:37.074Z,9.34
2023-05-16T05:08:37.007Z,9.32
2023-05-16T05:09:37.024Z,9.30
2023-05-16T05:10:36.999Z,9.30
2023-05-16T05:11:37.016Z,9.30
2023-05-16T05:12:36.976Z,9.23
2023-05-16T05:13:36.979Z,9.23
2023-05-16T05:14:36.958Z,9.23
2023-05-16T05:15:36.952Z,9.19
2023-05-16T05:16:36.934Z,9.17
2023-05-16T05:17:37.065Z,9.17
2023-05-16T05:18:37.008Z,9.13
2023-05-16T05:19:36.959Z,9.15
2023-05-16T05:20:36.875Z,9.12
2023-05-16T05:21:36.895Z,9.13
2023-05-16T05:22:36.883Z,9.12
2023-05-16T05:23:36.907Z,9.10
2023-05-16T05:24:36.838Z,9.08
2023-05-16T05:25:37.833Z,9.03
2023-05-16T05:26:36.821Z,9.06
2023-05-16T05:27:36.829Z,9.08
2023-05-16T05:28:36.818Z,9.13
2023-05-16T05:29:36.827Z,9.13
2023-05-16T05:30:36.781Z,9.15
2023-05-16T05:31:36.835Z,9.15
2023-05-16T05:32:36.798Z,9.19
2023-05-16T05:33:36.760Z,9.20
2023-05-16T05:34:36.745Z,9.17
2023-05-16T05:35:36.755Z,9.19
2023-05-16T05:36:36.901Z,9.16
2023-05-16T05:37:36.716Z,9.22
2023-05-16T05:38:36.692Z,9.24
2023-05-16T05:39:36.748Z,9.27
2023-05-16T05:40:36.667Z,9.27
2023-05-16T05:41:36.676Z,9.24
2023-05-16T05:42:36.649Z,9.24
2023-05-16T05:43:36.649Z,9.26
2023-05-16T05:44:36.630Z,9.17
2023-05-16T05:45:36.720Z,9.16
2023-05-16T05:46:36.628Z,9.17
2023-05-16T05:47:36.676Z,9.20
2023-05-16T05:48:36.574Z,9.23
2023-05-16T05:49:36.610Z,9.26
2023-05-16T05:50:36.584Z,9.27
2023-05-16T05:51:36.569Z,9.26
2023-05-16T05:52:36.571Z,9.23
2023-05-16T05:53:36.557Z,9.24
2023-05-16T05:54:36.514Z,9.24
2023-05-16T05:55:36.525Z,9.20
2023-05-16T05:56:36.609Z,9.20
2023-05-16T05:57:36.499Z,9.20
2023-05-16T05:58:36.476Z,9.20
2023-05-16T05:59:36.489Z,9.22
2023-05-16T06:00:36.492Z,9.26
2023-05-16T06:01:36.481Z,9.27
2023-05-16T06:02:36.485Z,9.27
2023-05-16T06:03:36.515Z,9.26
2023-05-16T06:04:36.411Z,9.26
2023-05-16T06:05:36.467Z,9.26
2023-05-16T06:06:36.382Z,9.26
2023-05-16T06:07:36.450Z,9.20
2023-05-16T06:08:36.380Z,9.16
2023-05-16T06:09:36.391Z,9.13
2023-05-16T06:10:36.340Z,9.12
2023-05-16T06:11:36.382Z,9.13
2023-05-16T06:12:36.449Z,9.15
2023-05-16T06:13:36.364Z,9.15
2023-05-16T06:14:36.308Z,9.13
2023-05-16T06:15:36.331Z,9.12
2023-05-16T06:16:36.299Z,9.15
2023-05-16T06:17:36.437Z,9.13
2023-05-16T06:18:36.402Z,9.17
2023-05-16T06:19:36.298Z,9.17
2023-05-16T06:20:36.234Z,9.17
2023-05-16T06:21:36.250Z,9.15
2023-05-16T06:22:36.233Z,9.19
2023-05-16T06:23:36.258Z,9.16
2023-05-16T06:24:36.198Z,9.15
2023-05-16T06:25:36.195Z,9.16
2023-05-16T06:26:36.166Z,9.13
2023-05-16T06:27:36.199Z,9.13
2023-05-16T06:28:36.168Z,9.15
2023-05-16T06:29:36.192Z,9.15
2023-05-16T06:30:36.140Z,9.17
2023-05-16T06:31:36.250Z,9.12
2023-05-16T06:32:36.150Z,9.08
2023-05-16T06:33:36.193Z,9.00
2023-05-16T06:34:36.135Z,8.97
2023-05-16T06:35:36.105Z,8.97
2023-05-16T06:36:36.061Z,8.98
2023-05-16T06:37:36.097Z,9.00
2023-05-16T06:38:36.033Z,9.03
2023-05-16T06:39:36.066Z,9.04
2023-05-16T06:40:36.055Z,9.06
2023-05-16T06:41:36.471Z,9.06
2023-05-16T06:42:36.010Z,9.06
2023-05-16T06:43:36.015Z,9.00
2023-05-16T06:44:35.982Z,8.98
2023-05-16T06:45:36.026Z,8.98
2023-05-16T06:46:36.024Z,8.97
2023-05-16T06:47:36.035Z,9.00
2023-05-16T06:48:35.945Z,8.98
2023-05-16T06:49:35.966Z,9.00
2023-05-16T06:50:35.925Z,9.00
2023-05-16T06:51:35.947Z,9.01
2023-05-16T06:52:35.908Z,8.98
2023-05-16T06:53:35.917Z,8.96
2023-05-16T06:54:35.882Z,8.85
2023-05-16T06:55:35.882Z,8.76
2023-05-16T06:56:35.876Z,8.71
2023-05-16T06:57:35.865Z,8.73
2023-05-16T06:58:35.834Z,8.70
2023-05-16T06:59:35.839Z,8.65
2023-05-16T07:00:35.807Z,8.63
2023-05-16T07:01:35.867Z,8.60
2023-05-16T07:02:35.912Z,8.60
2023-05-16T07:03:35.881Z,8.60
2023-05-16T07:04:35.760Z,8.58
2023-05-16T07:05:35.813Z,8.57
2023-05-16T07:06:35.739Z,8.52
2023-05-16T07:07:35.795Z,8.47
2023-05-16T07:08:35.731Z,8.43
2023-05-16T07:09:35.749Z,8.43
2023-05-16T07:10:35.704Z,8.42
2023-05-16T07:11:35.740Z,8.45
2023-05-16T07:12:35.689Z,8.42
2023-05-16T07:13:36.205Z,8.40
2023-05-16T07:14:35.654Z,8.37
2023-05-16T07:15:35.695Z,8.34
2023-05-16T07:16:35.666Z,8.37
2023-05-16T07:17:35.670Z,8.37
2023-05-16T07:18:35.685Z,8.34
2023-05-16T07:19:35.643Z,8.31
2023-05-16T07:20:35.612Z,8.27
2023-05-16T07:21:35.665Z,8.22
2023-05-16T07:22:35.582Z,8.21
2023-05-16T07:23:35.588Z,8.21
2023-05-16T07:24:35.554Z,8.21
2023-05-16T07:25:35.575Z,8.21
2023-05-16T07:26:35.527Z,8.22
2023-05-16T07:27:35.550Z,8.20
2023-05-16T07:28:35.527Z,8.22
2023-05-16T07:29:35.574Z,8.24
2023-05-16T07:30:35.498Z,8.22
2023-05-16T07:31:35.520Z,8.22
2023-05-16T07:32:35.503Z,8.25
2023-05-16T07:33:35.478Z,8.25
2023-05-16T07:34:35.466Z,8.24
2023-05-16T07:35:35.490Z,8.24
2023-05-16T07:36:35.521Z,8.24
2023-05-16T07:37:35.435Z,8.22
2023-05-16T07:38:35.407Z,8.22
2023-05-16T07:39:35.404Z,8.24
2023-05-16T07:40:35.386Z,8.25
2023-05-16T07:41:35.407Z,8.25
2023-05-16T07:42:35.378Z,8.25
2023-05-16T07:43:35.389Z,8.24
2023-05-16T07:44:35.332Z,8.25
2023-05-16T07:45:35.336Z,8.27
2023-05-16T07:46:35.477Z,8.27
2023-05-16T07:47:35.433Z,8.29
2023-05-16T07:48:35.289Z,8.28
2023-05-16T07:49:35.317Z,8.29
2023-05-16T07:50:35.266Z,8.31
2023-05-16T07:51:35.322Z,8.29
2023-05-16T07:52:35.237Z,8.29
2023-05-16T07:53:35.273Z,8.32
2023-05-16T07:54:35.227Z,8.32
2023-05-16T07:55:35.245Z,8.37
2023-05-16T07:56:35.228Z,8.42
2023-05-16T07:57:35.247Z,8.45
2023-05-16T07:58:35.194Z,8.50
2023-05-16T07:59:35.276Z,8.60
2023-05-16T08:00:35.166Z,8.67
2023-05-16T08:01:35.166Z,8.76
2023-05-16T08:02:35.294Z,8.86
2023-05-16T08:03:35.233Z,8.89
2023-05-16T08:04:35.138Z,8.98
2023-05-16T08:05:35.205Z,9.08
2023-05-16T08:06:35.085Z,9.20
2023-05-16T08:07:35.125Z,9.34
2023-05-16T08:08:35.095Z,9.41
2023-05-16T08:09:35.078Z,9.56
2023-05-16T08:10:35.083Z,9.71
2023-05-16T08:11:35.068Z,9.85
2023-05-16T08:12:35.022Z,9.89
2023-05-16T08:13:35.073Z,9.77
2023-05-16T08:14:35.026Z,9.78
2023-05-16T08:15:35.055Z,9.83
2023-05-16T08:16:35.109Z,9.91
2023-05-16T08:17:35.047Z,9.98
2023-05-16T08:18:35.000Z,9.95
2023-05-16T08:19:35.008Z,10.11
2023-05-16T08:20:34.957Z,10.32
2023-05-16T08:21:34.963Z,10.44
2023-05-16T08:22:34.936Z,10.69
2023-05-16T08:23:34.945Z,10.94
2023-05-16T08:24:34.921Z,11.33
2023-05-16T08:25:34.933Z,11.33
2023-05-16T08:26:34.888Z,11.41
2023-05-16T08:27:34.900Z,11.56
2023-05-16T08:28:34.847Z,11.77
2023-05-16T08:29:34.862Z,11.96
2023-05-16T08:30:34.883Z,12.16
2023-05-16T08:31:34.912Z,12.48
2023-05-16T08:32:34.887Z,12.58
2023-05-16T08:33:34.825Z,12.26
2023-05-16T08:34:34.787Z,11.72
2023-05-16T08:35:34.831Z,11.51
2023-05-16T08:36:34.759Z,11.33
2023-05-16T08:37:34.783Z,11.21
2023-05-16T08:38:34.789Z,10.84
2023-05-16T08:39:34.779Z,10.63
2023-05-16T08:40:34.751Z,10.60
2023-05-16T08:41:34.756Z,10.60
2023-05-16T08:42:34.698Z,10.55
2023-05-16T08:43:34.712Z,10.55
2023-05-16T08:44:34.687Z,10.54
2023-05-16T08:45:34.707Z,10.55
2023-05-16T08:46:34.725Z,10.78
2023-05-16T08:47:34.775Z,11.09
2023-05-16T08:48:34.635Z,11.46
2023-05-16T08:49:34.634Z,11.57
2023-05-16T08:50:34.632Z,11.42
2023-05-16T08:51:34.595Z,11.42
2023-05-16T08:52:34.655Z,11.67
2023-05-16T08:53:34.736Z,11.87
2023-05-16T08:54:34.593Z,12.05
2023-05-16T08:55:34.553Z,12.07
2023-05-16T08:56:34.695Z,12.13
2023-05-16T08:57:34.562Z,12.26
2023-05-16T08:58:34.542Z,12.44
2023-05-16T08:59:34.635Z,12.40
2023-05-16T09:00:34.522Z,12.18
2023-05-16T09:01:34.624Z,12.40
2023-05-16T09:02:34.587Z,12.30
2023-05-16T09:03:34.498Z,12.04
2023-05-16T09:04:34.651Z,11.93
2023-05-16T09:05:34.569Z,11.75
2023-05-16T09:06:34.453Z,11.60
2023-05-16T09:07:34.419Z,11.63
2023-05-16T09:08:34.544Z,11.70
2023-05-16T09:09:34.424Z,11.72
2023-05-16T09:10:34.443Z,11.59
2023-05-16T09:11:36.675Z,11.57
2023-05-16T09:12:34.421Z,11.49
2023-05-16T09:13:34.376Z,11.69
2023-05-16T09:14:34.476Z,11.75
2023-05-16T09:15:34.379Z,11.81
2023-05-16T09:16:34.402Z,11.62
2023-05-16T09:17:39.988Z,11.57
2023-05-16T09:18:34.398Z,11.63
2023-05-16T09:19:34.362Z,11.62
2023-05-16T09:20:34.364Z,11.64
2023-05-16T09:21:34.294Z,11.33
2023-05-16T09:22:34.292Z,10.94
2023-05-16T09:23:36.901Z,10.83
2023-05-16T09:24:34.276Z,10.83
2023-05-16T09:25:34.488Z,10.88
2023-05-16T09:26:34.309Z,10.99
2023-05-16T09:27:34.218Z,11.19
2023-05-16T09:28:34.210Z,11.49
2023-05-16T09:29:36.599Z,11.49
2023-05-16T09:30:34.758Z,11.59
2023-05-16T09:31:34.247Z,11.77
2023-05-16T09:32:34.227Z,11.85
2023-05-16T09:33:34.163Z,11.87
2023-05-16T09:34:34.167Z,11.84
2023-05-16T09:36:34.151Z,11.79
2023-05-16T09:37:34.090Z,11.81
2023-05-16T09:38:34.178Z,11.93
2023-05-16T09:39:34.075Z,11.96
2023-05-16T09:40:34.100Z,12.08
2023-05-16T09:41:34.126Z,12.29
2023-05-16T09:42:34.092Z,12.63
2023-05-16T09:43:36.552Z,12.95
2023-05-16T09:44:34.132Z,13.38
2023-05-16T09:45:34.031Z,13.24
2023-05-16T09:46:34.072Z,13.43
2023-05-16T09:47:34.140Z,13.84
2023-05-16T09:48:34.017Z,14.13
2023-05-16T09:49:33.976Z,13.94
2023-05-16T09:50:34.097Z,13.76
2023-05-16T09:51:33.969Z,13.51
2023-05-16T09:52:34.001Z,13.41
2023-05-16T09:54:44.198Z,13.24
2023-05-16T09:55:45.162Z,12.98
2023-05-16T09:56:45.176Z,13.01
2023-05-16T09:57:45.174Z,12.67
2023-05-16T09:58:45.158Z,12.22
2023-05-16T09:59:45.124Z,12.19
2023-05-16T10:00:45.130Z,12.66
2023-05-16T10:01:45.151Z,13.06
2023-05-16T10:02:45.207Z,13.32
2023-05-16T10:03:45.257Z,13.61
2023-05-16T10:04:45.095Z,13.36
2023-05-16T10:05:45.054Z,13.41
2023-05-16T10:06:45.068Z,12.98
2023-05-16T10:07:45.051Z,12.69
2023-05-16T10:08:45.099Z,12.74
2023-05-16T10:09:45.038Z,12.92
2023-05-16T10:10:45.031Z,12.95
2023-05-16T10:11:45.207Z,13.14
2023-05-16T10:12:45.001Z,13.51
2023-05-16T10:13:45.006Z,13.83
2023-05-16T10:14:44.999Z,14.11
2023-05-16T10:15:44.945Z,13.63
2023-05-16T10:16:45.018Z,13.44
2023-05-16T10:17:44.954Z,13.36
2023-05-16T10:18:44.969Z,12.99
2023-05-16T10:19:45.010Z,12.85
2023-05-16T10:20:44.912Z,13.12
2023-05-16T10:21:44.885Z,13.31
2023-05-16T10:22:44.902Z,13.28
2023-05-16T10:23:44.885Z,13.22
2023-05-16T10:24:44.869Z,13.43
2023-05-16T10:25:44.865Z,13.88
2023-05-16T10:26:44.860Z,14.31
2023-05-16T10:27:44.834Z,14.67
2023-05-16T10:28:44.844Z,14.71
2023-05-16T10:29:54.074Z,14.59
2023-05-16T10:30:45.088Z,14.78
2023-05-16T10:31:44.819Z,14.59
2023-05-16T10:32:44.833Z,14.02
2023-05-16T10:33:44.778Z,13.68
2023-05-16T10:34:44.770Z,13.38
2023-05-16T10:35:44.733Z,13.43
2023-05-16T10:36:44.785Z,13.47
2023-05-16T10:37:44.710Z,13.55
2023-05-16T10:38:44.723Z,13.24
2023-05-16T10:39:44.710Z,13.16
2023-05-16T10:40:44.702Z,13.19
2023-05-16T10:41:44.701Z,13.65
2023-05-16T10:42:44.690Z,13.65
2023-05-16T10:43:44.868Z,13.68
2023-05-16T10:44:51.624Z,13.57
2023-05-16T10:45:44.696Z,13.62
2023-05-16T10:46:44.636Z,13.75
2023-05-16T10:47:44.684Z,13.75
2023-05-16T10:48:44.614Z,13.76
2023-05-16T10:49:44.580Z,13.87
2023-05-16T10:50:44.589Z,13.59
2023-05-16T10:51:44.570Z,13.50
2023-05-16T10:52:44.609Z,13.51
2023-05-16T10:53:44.541Z,13.75
2023-05-16T10:54:44.550Z,14.11
2023-05-16T10:55:44.527Z,14.17
2023-05-16T10:56:44.532Z,14.06
2023-05-16T10:57:44.493Z,14.08
2023-05-16T10:58:44.559Z,14.21
2023-05-16T10:59:44.481Z,13.99
2023-05-16T11:00:44.494Z,13.75
2023-05-16T11:01:44.467Z,13.53
2023-05-16T11:02:44.517Z,13.35
2023-05-16T11:03:44.548Z,13.43
2023-05-16T11:04:44.442Z,13.59
2023-05-16T11:05:44.438Z,13.87
2023-05-16T11:06:44.464Z,14.19
2023-05-16T11:07:44.414Z,14.35
2023-05-16T11:08:44.380Z,14.72
2023-05-16T11:09:44.447Z,14.52
2023-05-16T11:10:44.386Z,14.41
2023-05-16T11:11:47.950Z,14.36
2023-05-16T11:12:44.352Z,14.21
2023-05-16T11:13:44.346Z,14.16
2023-05-16T11:14:44.346Z,14.34
2023-05-16T11:15:44.328Z,14.69
2023-05-16T11:16:44.329Z,14.93
2023-05-16T11:17:46.190Z,15.09
2023-05-16T11:18:44.290Z,15.13
2023-05-16T11:19:44.294Z,14.94
2023-05-16T11:20:44.296Z,14.64
2023-05-16T11:21:44.265Z,14.42
2023-05-16T11:22:44.240Z,14.56
2023-05-16T11:23:44.249Z,14.74
2023-05-16T11:24:44.214Z,15.07
2023-05-16T11:25:44.270Z,14.97
2023-05-16T11:26:44.193Z,15.23
2023-05-16T11:27:44.242Z,15.07
2023-05-16T11:28:44.207Z,14.91
2023-05-16T11:29:44.183Z,15.04
2023-05-16T11:30:44.164Z,14.97
2023-05-16T11:31:44.215Z,14.80
2023-05-16T11:32:44.174Z,14.71
2023-05-16T11:33:44.161Z,14.85
2023-05-16T11:34:44.099Z,14.74
2023-05-16T11:35:44.157Z,14.79
2023-05-16T11:36:44.115Z,15.09
2023-05-16T11:37:44.113Z,15.31
2023-05-16T11:38:44.341Z,15.51
2023-05-16T11:39:44.157Z,15.35
2023-05-16T11:40:44.054Z,15.22
2023-05-16T11:41:44.063Z,15.20
2023-05-16T11:42:44.048Z,15.41
2023-05-16T11:43:44.036Z,15.35
2023-05-16T11:44:44.005Z,15.15
2023-05-16T11:45:44.021Z,15.31
2023-05-16T11:46:44.029Z,15.13
2023-05-16T11:47:44.072Z,14.54
2023-05-16T11:48:44.059Z,14.34
2023-05-16T11:49:43.980Z,14.56
2023-05-16T11:50:43.962Z,14.67
2023-05-16T11:51:43.975Z,14.79
2023-05-16T11:52:43.924Z,14.90
2023-05-16T11:53:43.953Z,15.20
2023-05-16T11:54:43.917Z,15.59
2023-05-16T11:55:44.190Z,15.40
2023-05-16T11:56:43.892Z,14.95
2023-05-16T11:57:43.902Z,14.93
2023-05-16T11:58:43.912Z,15.07
2023-05-16T11:59:44.044Z,15.46
2023-05-16T12:00:43.848Z,15.23
2023-05-16T12:01:43.855Z,15.05
2023-05-16T12:02:44.075Z,14.98
2023-05-16T12:03:43.980Z,14.94
2023-05-16T12:04:43.988Z,14.98
2023-05-16T12:05:43.899Z,15.19
2023-05-16T12:06:43.782Z,15.12
2023-05-16T12:07:43.816Z,14.98
2023-05-16T12:08:43.765Z,14.67
2023-05-16T12:09:43.821Z,14.86
2023-05-16T12:10:43.739Z,14.95
2023-05-16T12:11:43.775Z,14.93
2023-05-16T12:12:43.727Z,14.85
2023-05-16T12:13:43.743Z,14.87
2023-05-16T12:14:43.725Z,14.97
2023-05-16T12:15:43.741Z,14.83
2023-05-16T12:16:43.717Z,14.86
2023-05-16T12:17:43.792Z,14.97
2023-05-16T12:18:43.958Z,15.48
2023-05-16T12:19:43.696Z,14.98
2023-05-16T12:20:43.671Z,14.90
2023-05-16T12:21:43.663Z,15.15
2023-05-16T12:22:43.631Z,15.22
2023-05-16T12:23:43.646Z,15.49
2023-05-16T12:24:43.604Z,15.62
2023-05-16T12:25:43.866Z,15.76
2023-05-16T12:26:43.656Z,15.58
2023-05-16T12:27:45.790Z,15.74
2023-05-16T12:28:43.569Z,15.88
2023-05-16T12:29:43.583Z,15.88
2023-05-16T12:30:43.544Z,16.14
2023-05-16T12:31:43.609Z,16.23
2023-05-16T12:32:43.886Z,16.18
2023-05-16T12:33:43.623Z,16.18
2023-05-16T12:34:43.508Z,15.85
2023-05-16T12:35:43.519Z,15.52
2023-05-16T12:36:43.494Z,15.27
2023-05-16T12:37:43.542Z,14.82
2023-05-16T12:38:43.456Z,14.82
2023-05-16T12:39:43.474Z,14.64
2023-05-16T12:40:43.452Z,14.60
2023-05-16T12:41:43.454Z,14.78
2023-05-16T12:42:43.437Z,15.00
2023-05-16T12:43:43.434Z,14.94
2023-05-16T12:44:43.402Z,14.74
2023-05-16T12:45:43.420Z,14.87
2023-05-16T12:46:43.462Z,14.63
2023-05-16T12:47:43.470Z,14.80
2023-05-16T12:48:43.394Z,14.98
2023-05-16T12:49:43.351Z,14.57
2023-05-16T12:50:43.337Z,14.42
2023-05-16T12:51:43.332Z,14.61
2023-05-16T12:52:43.296Z,14.85
2023-05-16T12:53:43.954Z,15.04
2023-05-16T12:54:43.275Z,15.23
2023-05-16T12:55:43.297Z,15.38
2023-05-16T12:56:43.258Z,15.64
2023-05-16T12:57:43.351Z,15.86
2023-05-16T12:58:43.294Z,15.96
2023-05-16T12:59:43.279Z,15.62
2023-05-16T13:00:43.220Z,15.35
2023-05-16T13:01:43.285Z,15.09
2023-05-16T13:02:43.299Z,14.74
2023-05-16T13:03:43.264Z,14.63
2023-05-16T13:04:43.207Z,14.46
2023-05-16T13:05:43.206Z,14.52